sensor_id;sensor_type;location;lat;lon;timestamp;pressure;altitude;pressure_sealevel;temperature;humidity
9521;BME280;4798;41.574;23.734;2023-05-18T00:00:32;94775.28;;;13.43;100.00
9521;BME280;4798;41.574;23.734;2023-05-18T00:03:01;94781.09;;;13.45;100.00
9521;BME280;4798;41.574;23.734;2023-05-18T00:05:31;94799.84;;;12.99;100.00
9521;BME280;4798;41.574;23.734;2023-05-18T00:08:00;94797.38;;;12.89;100.00
9521;BME280;4798;41.574;23.734;2023-05-18T00:10:29;94787.81;;;13.29;100.00
9521;BME280;4798;41.574;23.734;2023-05-18T00:12:57;94784.50;;;13.10;100.00
9521;BME280;4798;41.574;23.734;2023-05-18T00:15:25;94784.47;;;13.37;100.00
9521;BME280;4798;41.574;23.734;2023-05-18T00:17:54;94777.34;;;13.46;100.00
9521;BME280;4798;41.574;23.734;2023-05-18T00:20:23;94779.63;;;13.39;100.00
9521;BME280;4798;41.574;23.734;2023-05-18T00:22:54;94777.78;;;13.26;100.00
9521;BME280;4798;41.574;23.734;2023-05-18T00:25:22;94783.69;;;12.96;100.00
9521;BME280;4798;41.574;23.734;2023-05-18T00:27:51;94751.66;;;13.01;100.00
9521;BME280;4798;41.574;23.734;2023-05-18T00:30:19;94767.00;;;13.31;100.00
9521;BME280;4798;41.574;23.734;2023-05-18T00:32:49;94769.47;;;13.41;100.00
9521;BME280;4798;41.574;23.734;2023-05-18T00:35:18;94771.53;;;13.44;100.00
9521;BME280;4798;41.574;23.734;2023-05-18T00:37:46;94770.84;;;13.38;100.00
9521;BME280;4798;41.574;23.734;2023-05-18T00:40:16;94778.72;;;13.44;100.00
9521;BME280;4798;41.574;23.734;2023-05-18T00:42:45;94778.13;;;13.47;100.00
9521;BME280;4798;41.574;23.734;2023-05-18T00:45:13;94774.88;;;13.50;100.00
9521;BME280;4798;41.574;23.734;2023-05-18T00:47:42;94769.63;;;13.22;100.00
9521;BME280;4798;41.574;23.734;2023-05-18T00:50:10;94772.28;;;13.09;100.00
9521;BME280;4798;41.574;23.734;2023-05-18T00:52:39;94768.50;;;12.83;100.00
9521;BME280;4798;41.574;23.734;2023-05-18T00:55:08;94772.56;;;12.80;100.00
9521;BME280;4798;41.574;23.734;2023-05-18T00:57:41;94764.19;;;13.00;100.00
9521;BME280;4798;41.574;23.734;2023-05-18T01:00:11;94752.66;;;13.05;100.00
9521;BME280;4798;41.574;23.734;2023-05-18T01:02:40;94762.53;;;13.18;100.00
9521;BME280;4798;41.574;23.734;2023-05-18T01:05:12;94768.34;;;12.93;100.00
9521;BME280;4798;41.574;23.734;2023-05-18T01:07:40;94674.22;;;12.39;100.00
9521;BME280;4798;41.574;23.734;2023-05-18T01:10:10;94762.31;;;13.14;100.00
9521;BME280;4798;41.574;23.734;2023-05-18T01:12:44;94760.41;;;13.28;100.00
9521;BME280;4798;41.574;23.734;2023-05-18T01:15:17;94772.34;;;13.31;100.00
9521;BME280;4798;41.574;23.734;2023-05-18T01:17:58;94776.50;;;13.23;100.00
9521;BME280;4798;41.574;23.734;2023-05-18T01:20:34;94775.50;;;13.06;100.00
9521;BME280;4798;41.574;23.734;2023-05-18T01:23:34;94782.81;;;12.87;100.00
9521;BME280;4798;41.574;23.734;2023-05-18T01:26:13;94787.53;;;12.90;100.00
9521;BME280;4798;41.574;23.734;2023-05-18T01:28:44;94790.97;;;12.63;100.00
9521;BME280;4798;41.574;23.734;2023-05-18T01:31:13;94798.16;;;12.49;100.00
9521;BME280;4798;41.574;23.734;2023-05-18T01:33:42;94750.31;;;12.03;100.00
9521;BME280;4798;41.574;23.734;2023-05-18T01:36:11;94801.34;;;12.32;100.00
9521;BME280;4798;41.574;23.734;2023-05-18T01:38:39;94777.44;;;12.32;100.00
9521;BME280;4798;41.574;23.734;2023-05-18T01:41:17;94799.47;;;12.92;100.00
9521;BME280;4798;41.574;23.734;2023-05-18T01:43:52;94737.97;;;12.94;100.00
9521;BME280;4798;41.574;23.734;2023-05-18T01:46:34;94790.41;;;13.07;100.00
9521;BME280;4798;41.574;23.734;2023-05-18T01:49:10;94803.22;;;13.18;100.00
9521;BME280;4798;41.574;23.734;2023-05-18T01:51:44;94776.59;;;13.18;100.00
9521;BME280;4798;41.574;23.734;2023-05-18T01:54:19;94801.22;;;13.38;100.00
9521;BME280;4798;41.574;23.734;2023-05-18T01:56:51;94798.88;;;13.22;100.00
9521;BME280;4798;41.574;23.734;2023-05-18T01:59:22;94797.03;;;13.09;100.00
9521;BME280;4798;41.574;23.734;2023-05-18T02:01:51;94805.16;;;12.99;100.00
9521;BME280;4798;41.574;23.734;2023-05-18T02:04:25;94801.63;;;13.04;100.00
9521;BME280;4798;41.574;23.734;2023-05-18T02:06:54;94805.59;;;13.06;100.00
9521;BME280;4798;41.574;23.734;2023-05-18T02:09:22;94810.78;;;12.84;100.00
9521;BME280;4798;41.574;23.734;2023-05-18T02:11:52;94812.34;;;12.71;100.00
9521;BME280;4798;41.574;23.734;2023-05-18T02:14:20;94808.13;;;12.98;100.00
9521;BME280;4798;41.574;23.734;2023-05-18T02:16:48;94816.19;;;13.33;100.00
9521;BME280;4798;41.574;23.734;2023-05-18T02:19:19;94777.00;;;13.25;100.00
9521;BME280;4798;41.574;23.734;2023-05-18T02:21:47;94821.81;;;13.46;100.00
9521;BME280;4798;41.574;23.734;2023-05-18T02:24:16;94776.31;;;12.79;100.00
9521;BME280;4798;41.574;23.734;2023-05-18T02:26:44;94828.59;;;12.84;100.00
9521;BME280;4798;41.574;23.734;2023-05-18T02:29:14;94820.78;;;12.60;100.00
9521;BME280;4798;41.574;23.734;2023-05-18T02:31:42;94823.56;;;12.68;100.00
9521;BME280;4798;41.574;23.734;2023-05-18T02:34:11;94824.16;;;12.65;100.00
9521;BME280;4798;41.574;23.734;2023-05-18T02:36:41;94819.75;;;13.02;100.00
9521;BME280;4798;41.574;23.734;2023-05-18T02:39:09;94805.34;;;13.44;100.00
9521;BME280;4798;41.574;23.734;2023-05-18T02:41:38;94785.44;;;13.41;100.00
9521;BME280;4798;41.574;23.734;2023-05-18T02:44:06;94807.19;;;13.57;100.00
9521;BME280;4798;41.574;23.734;2023-05-18T02:46:36;94805.53;;;13.47;100.00
9521;BME280;4798;41.574;23.734;2023-05-18T02:49:04;94798.22;;;13.53;100.00
9521;BME280;4798;41.574;23.734;2023-05-18T02:51:32;94805.34;;;13.79;100.00
9521;BME280;4798;41.574;23.734;2023-05-18T02:54:01;94777.31;;;13.82;100.00
9521;BME280;4798;41.574;23.734;2023-05-18T02:56:30;94791.47;;;13.69;100.00
9521;BME280;4798;41.574;23.734;2023-05-18T02:58:58;94797.97;;;12.72;100.00
9521;BME280;4798;41.574;23.734;2023-05-18T03:01:27;94808.91;;;12.98;100.00
9521;BME280;4798;41.574;23.734;2023-05-18T03:03:57;94807.34;;;13.11;100.00
9521;BME280;4798;41.574;23.734;2023-05-18T03:06:25;94815.31;;;12.84;100.00
9521;BME280;4798;41.574;23.734;2023-05-18T03:08:56;94821.06;;;12.31;100.00
9521;BME280;4798;41.574;23.734;2023-05-18T03:11:24;94820.72;;;12.19;100.00
9521;BME280;4798;41.574;23.734;2023-05-18T03:13:53;94823.13;;;12.34;100.00
9521;BME280;4798;41.574;23.734;2023-05-18T03:16:21;94819.69;;;12.34;100.00
9521;BME280;4798;41.574;23.734;2023-05-18T03:18:54;94790.34;;;12.52;100.00
9521;BME280;4798;41.574;23.734;2023-05-18T03:21:26;94819.69;;;12.47;100.00
9521;BME280;4798;41.574;23.734;2023-05-18T03:24:02;94825.56;;;12.77;100.00
9521;BME280;4798;41.574;23.734;2023-05-18T03:26:30;94824.09;;;13.11;100.00
9521;BME280;4798;41.574;23.734;2023-05-18T03:28:59;94821.81;;;13.05;100.00
9521;BME280;4798;41.574;23.734;2023-05-18T03:31:28;94819.38;;;12.95;100.00
9521;BME280;4798;41.574;23.734;2023-05-18T03:33:56;94818.94;;;12.47;100.00
9521;BME280;4798;41.574;23.734;2023-05-18T03:36:26;94821.97;;;12.54;100.00
9521;BME280;4798;41.574;23.734;2023-05-18T03:38:55;94824.16;;;12.65;100.00
9521;BME280;4798;41.574;23.734;2023-05-18T03:41:23;94828.41;;;12.80;100.00
9521;BME280;4798;41.574;23.734;2023-05-18T03:43:51;94823.00;;;12.99;100.00
9521;BME280;4798;41.574;23.734;2023-05-18T03:46:20;94839.91;;;12.75;100.00
9521;BME280;4798;41.574;23.734;2023-05-18T03:48:48;94852.06;;;12.82;100.00
9521;BME280;4798;41.574;23.734;2023-05-18T03:51:17;94856.06;;;12.65;100.00
9521;BME280;4798;41.574;23.734;2023-05-18T03:53:46;94859.38;;;12.57;100.00
9521;BME280;4798;41.574;23.734;2023-05-18T03:56:18;94851.22;;;12.67;100.00
9521;BME280;4798;41.574;23.734;2023-05-18T03:58:46;94846.56;;;12.92;100.00
9521;BME280;4798;41.574;23.734;2023-05-18T04:01:17;94855.22;;;12.84;100.00
9521;BME280;4798;41.574;23.734;2023-05-18T04:03:45;94856.59;;;12.95;100.00
9521;BME280;4798;41.574;23.734;2023-05-18T04:06:14;94851.88;;;12.92;100.00
9521;BME280;4798;41.574;23.734;2023-05-18T04:08:42;94840.22;;;12.88;100.00
9521;BME280;4798;41.574;23.734;2023-05-18T04:11:13;94841.81;;;12.89;100.00
9521;BME280;4798;41.574;23.734;2023-05-18T04:13:41;94838.38;;;13.02;100.00
9521;BME280;4798;41.574;23.734;2023-05-18T04:16:10;94842.16;;;13.14;100.00
9521;BME280;4798;41.574;23.734;2023-05-18T04:18:40;94840.97;;;13.20;100.00
9521;BME280;4798;41.574;23.734;2023-05-18T04:21:08;94841.94;;;13.11;100.00
9521;BME280;4798;41.574;23.734;2023-05-18T04:23:37;94835.44;;;13.30;100.00
9521;BME280;4798;41.574;23.734;2023-05-18T04:26:06;94840.19;;;13.20;100.00
9521;BME280;4798;41.574;23.734;2023-05-18T04:28:36;94833.38;;;13.27;100.00
9521;BME280;4798;41.574;23.734;2023-05-18T04:31:04;94831.56;;;13.50;100.00
9521;BME280;4798;41.574;23.734;2023-05-18T04:33:33;94834.91;;;12.88;100.00
9521;BME280;4798;41.574;23.734;2023-05-18T04:36:01;94848.34;;;12.37;100.00
9521;BME280;4798;41.574;23.734;2023-05-18T04:38:32;94848.53;;;12.08;100.00
9521;BME280;4798;41.574;23.734;2023-05-18T04:41:01;94841.28;;;12.14;100.00
9521;BME280;4798;41.574;23.734;2023-05-18T04:43:32;94841.34;;;12.41;100.00
9521;BME280;4798;41.574;23.734;2023-05-18T04:46:03;94845.31;;;12.25;100.00
9521;BME280;4798;41.574;23.734;2023-05-18T04:48:33;94851.25;;;12.03;100.00
9521;BME280;4798;41.574;23.734;2023-05-18T04:51:02;94857.31;;;12.22;100.00
9521;BME280;4798;41.574;23.734;2023-05-18T04:53:32;94857.50;;;12.44;100.00
9521;BME280;4798;41.574;23.734;2023-05-18T04:56:00;94845.03;;;12.58;100.00
9521;BME280;4798;41.574;23.734;2023-05-18T04:58:29;94850.56;;;12.62;100.00
9521;BME280;4798;41.574;23.734;2023-05-18T05:00:57;94850.00;;;13.06;100.00
9521;BME280;4798;41.574;23.734;2023-05-18T05:03:27;94858.16;;;12.96;100.00
9521;BME280;4798;41.574;23.734;2023-05-18T05:05:56;94850.34;;;13.18;100.00
9521;BME280;4798;41.574;23.734;2023-05-18T05:08:24;94857.41;;;13.36;100.00
9521;BME280;4798;41.574;23.734;2023-05-18T05:10:52;94847.31;;;13.60;100.00
9521;BME280;4798;41.574;23.734;2023-05-18T05:13:21;94857.91;;;13.38;100.00
9521;BME280;4798;41.574;23.734;2023-05-18T05:15:49;94852.78;;;13.91;100.00
9521;BME280;4798;41.574;23.734;2023-05-18T05:18:18;94827.22;;;13.90;100.00
9521;BME280;4798;41.574;23.734;2023-05-18T05:20:49;94849.25;;;14.40;100.00
9521;BME280;4798;41.574;23.734;2023-05-18T05:23:17;94710.19;;;13.71;100.00
9521;BME280;4798;41.574;23.734;2023-05-18T05:25:45;94852.28;;;14.47;100.00
9521;BME280;4798;41.574;23.734;2023-05-18T05:28:14;94840.03;;;14.46;100.00
9521;BME280;4798;41.574;23.734;2023-05-18T05:30:42;94849.00;;;14.50;100.00
9521;BME280;4798;41.574;23.734;2023-05-18T05:33:10;94851.19;;;14.48;100.00
9521;BME280;4798;41.574;23.734;2023-05-18T05:35:39;94790.56;;;14.62;100.00
9521;BME280;4798;41.574;23.734;2023-05-18T05:38:09;94844.84;;;14.97;100.00
9521;BME280;4798;41.574;23.734;2023-05-18T05:40:37;94851.72;;;14.89;100.00
9521;BME280;4798;41.574;23.734;2023-05-18T05:43:06;94847.25;;;15.07;100.00
9521;BME280;4798;41.574;23.734;2023-05-18T05:45:34;94823.72;;;14.70;100.00
9521;BME280;4798;41.574;23.734;2023-05-18T05:48:03;94847.38;;;14.40;100.00
9521;BME280;4798;41.574;23.734;2023-05-18T05:50:31;94846.22;;;14.33;100.00
9521;BME280;4798;41.574;23.734;2023-05-18T05:53:00;94852.78;;;14.80;100.00
9521;BME280;4798;41.574;23.734;2023-05-18T05:55:30;94844.34;;;14.86;100.00
9521;BME280;4798;41.574;23.734;2023-05-18T05:57:58;94848.53;;;15.18;100.00
9521;BME280;4798;41.574;23.734;2023-05-18T06:00:27;94849.53;;;14.91;100.00
9521;BME280;4798;41.574;23.734;2023-05-18T06:02:55;94856.47;;;15.40;100.00
9521;BME280;4798;41.574;23.734;2023-05-18T06:05:24;94853.13;;;14.87;100.00
9521;BME280;4798;41.574;23.734;2023-05-18T06:07:53;94855.47;;;14.88;100.00
9521;BME280;4798;41.574;23.734;2023-05-18T06:10:22;94830.63;;;15.10;100.00
9521;BME280;4798;41.574;23.734;2023-05-18T06:12:52;94859.03;;;15.45;100.00
9521;BME280;4798;41.574;23.734;2023-05-18T06:15:20;94864.47;;;16.05;100.00
9521;BME280;4798;41.574;23.734;2023-05-18T06:17:48;94849.69;;;16.59;100.00
9521;BME280;4798;41.574;23.734;2023-05-18T06:20:17;94852.47;;;16.71;100.00
9521;BME280;4798;41.574;23.734;2023-05-18T06:22:46;94839.88;;;17.18;100.00
9521;BME280;4798;41.574;23.734;2023-05-18T06:25:14;94839.28;;;18.00;100.00
9521;BME280;4798;41.574;23.734;2023-05-18T06:27:44;94836.88;;;18.61;94.82
9521;BME280;4798;41.574;23.734;2023-05-18T06:30:14;94843.44;;;18.10;94.47
9521;BME280;4798;41.574;23.734;2023-05-18T06:32:43;94839.22;;;18.09;96.03
9521;BME280;4798;41.574;23.734;2023-05-18T06:35:11;94853.28;;;18.06;96.14
9521;BME280;4798;41.574;23.734;2023-05-18T06:37:39;94846.56;;;17.91;99.44
9521;BME280;4798;41.574;23.734;2023-05-18T06:40:10;94850.66;;;17.39;100.00
9521;BME280;4798;41.574;23.734;2023-05-18T06:42:38;94845.22;;;17.18;100.00
9521;BME280;4798;41.574;23.734;2023-05-18T06:45:07;94855.91;;;16.80;100.00
9521;BME280;4798;41.574;23.734;2023-05-18T06:47:37;94857.69;;;17.23;100.00
9521;BME280;4798;41.574;23.734;2023-05-18T06:50:06;94849.16;;;18.29;100.00
9521;BME280;4798;41.574;23.734;2023-05-18T06:52:34;94850.75;;;18.63;98.32
9521;BME280;4798;41.574;23.734;2023-05-18T06:55:04;94852.59;;;18.29;99.77
9521;BME280;4798;41.574;23.734;2023-05-18T06:57:33;94849.19;;;19.07;97.09
9521;BME280;4798;41.574;23.734;2023-05-18T07:00:01;94849.66;;;19.33;92.43
9521;BME280;4798;41.574;23.734;2023-05-18T07:02:33;94849.41;;;20.10;90.22
9521;BME280;4798;41.574;23.734;2023-05-18T07:05:03;94849.84;;;20.52;88.83
9521;BME280;4798;41.574;23.734;2023-05-18T07:07:35;94862.88;;;19.86;85.74
9521;BME280;4798;41.574;23.734;2023-05-18T07:10:04;94855.22;;;20.12;84.09
9521;BME280;4798;41.574;23.734;2023-05-18T07:12:33;94858.81;;;20.56;84.72
9521;BME280;4798;41.574;23.734;2023-05-18T07:15:01;94850.50;;;21.05;82.17
9521;BME280;4798;41.574;23.734;2023-05-18T07:17:30;94794.16;;;20.84;79.37
9521;BME280;4798;41.574;23.734;2023-05-18T07:19:58;94852.16;;;21.72;76.24
9521;BME280;4798;41.574;23.734;2023-05-18T07:22:28;94846.97;;;21.47;82.64
9521;BME280;4798;41.574;23.734;2023-05-18T07:24:56;94849.28;;;21.80;80.61
9521;BME280;4798;41.574;23.734;2023-05-18T07:27:26;94846.06;;;21.75;79.31
9521;BME280;4798;41.574;23.734;2023-05-18T07:29:55;94850.31;;;21.91;78.93
9521;BME280;4798;41.574;23.734;2023-05-18T07:32:23;94847.00;;;21.82;76.47
9521;BME280;4798;41.574;23.734;2023-05-18T07:34:51;94843.81;;;21.45;75.14
9521;BME280;4798;41.574;23.734;2023-05-18T07:37:21;94848.66;;;21.71;74.25
9521;BME280;4798;41.574;23.734;2023-05-18T07:39:50;94829.66;;;22.34;71.69
9521;BME280;4798;41.574;23.734;2023-05-18T07:42:19;94842.81;;;22.73;69.94
9521;BME280;4798;41.574;23.734;2023-05-18T07:44:47;94833.78;;;23.30;68.21
9521;BME280;4798;41.574;23.734;2023-05-18T07:47:15;94833.75;;;23.50;67.13
9521;BME280;4798;41.574;23.734;2023-05-18T07:49:44;94832.47;;;23.66;68.47
9521;BME280;4798;41.574;23.734;2023-05-18T07:52:12;94834.94;;;23.78;65.67
9521;BME280;4798;41.574;23.734;2023-05-18T07:54:40;94830.16;;;23.00;66.46
9521;BME280;4798;41.574;23.734;2023-05-18T07:57:10;94836.66;;;23.64;65.35
9521;BME280;4798;41.574;23.734;2023-05-18T07:59:39;94840.25;;;23.45;64.90
9521;BME280;4798;41.574;23.734;2023-05-18T08:02:07;94810.34;;;23.15;68.55
9521;BME280;4798;41.574;23.734;2023-05-18T08:04:35;94781.53;;;22.58;68.95
9521;BME280;4798;41.574;23.734;2023-05-18T08:07:04;94844.81;;;23.41;65.64
9521;BME280;4798;41.574;23.734;2023-05-18T08:09:32;94837.78;;;23.36;63.28
9521;BME280;4798;41.574;23.734;2023-05-18T08:12:01;94846.97;;;22.33;66.62
9521;BME280;4798;41.574;23.734;2023-05-18T08:14:30;94836.41;;;21.74;68.68
9521;BME280;4798;41.574;23.734;2023-05-18T08:16:59;94837.66;;;22.30;70.74
9521;BME280;4798;41.574;23.734;2023-05-18T08:19:27;94857.38;;;22.88;68.75
9521;BME280;4798;41.574;23.734;2023-05-18T08:21:56;94828.81;;;22.68;66.55
9521;BME280;4798;41.574;23.734;2023-05-18T08:24:24;94865.00;;;22.63;67.04
9521;BME280;4798;41.574;23.734;2023-05-18T08:26:52;94865.00;;;22.63;65.86
9521;BME280;4798;41.574;23.734;2023-05-18T08:29:20;94867.81;;;22.51;66.86
9521;BME280;4798;41.574;23.734;2023-05-18T08:31:50;94870.34;;;22.25;70.06
9521;BME280;4798;41.574;23.734;2023-05-18T08:34:19;94873.22;;;22.51;67.19
9521;BME280;4798;41.574;23.734;2023-05-18T08:36:47;94881.00;;;22.18;68.70
9521;BME280;4798;41.574;23.734;2023-05-18T08:39:16;94886.59;;;20.88;68.53
9521;BME280;4798;41.574;23.734;2023-05-18T08:41:50;94872.59;;;20.82;70.25
9521;BME280;4798;41.574;23.734;2023-05-18T08:44:25;94854.53;;;21.26;69.17
9521;BME280;4798;41.574;23.734;2023-05-18T08:46:58;94897.06;;;21.64;69.78
9521;BME280;4798;41.574;23.734;2023-05-18T08:49:28;94909.13;;;20.96;72.31
9521;BME280;4798;41.574;23.734;2023-05-18T08:52:02;94896.16;;;20.06;75.06
9521;BME280;4798;41.574;23.734;2023-05-18T08:54:31;94865.22;;;20.00;76.80
9521;BME280;4798;41.574;23.734;2023-05-18T08:57:01;94907.16;;;20.01;78.51
9521;BME280;4798;41.574;23.734;2023-05-18T08:59:32;94910.97;;;20.64;77.82
9521;BME280;4798;41.574;23.734;2023-05-18T09:02:05;94907.34;;;21.00;76.57
9521;BME280;4798;41.574;23.734;2023-05-18T09:04:34;94917.97;;;20.41;78.14
9521;BME280;4798;41.574;23.734;2023-05-18T09:07:03;94918.38;;;20.95;77.64
9521;BME280;4798;41.574;23.734;2023-05-18T09:09:34;94905.47;;;21.16;77.13
9521;BME280;4798;41.574;23.734;2023-05-18T09:12:03;94903.72;;;21.08;74.78
9521;BME280;4798;41.574;23.734;2023-05-18T09:14:32;94907.22;;;21.71;73.03
9521;BME280;4798;41.574;23.734;2023-05-18T09:17:01;94898.44;;;22.05;69.21
9521;BME280;4798;41.574;23.734;2023-05-18T09:19:31;94899.50;;;22.00;67.58
9521;BME280;4798;41.574;23.734;2023-05-18T09:21:59;94903.50;;;22.41;68.18
9521;BME280;4798;41.574;23.734;2023-05-18T09:24:28;94900.44;;;22.62;67.94
9521;BME280;4798;41.574;23.734;2023-05-18T09:26:56;94891.53;;;22.42;66.32
9521;BME280;4798;41.574;23.734;2023-05-18T09:29:25;94899.75;;;22.11;66.98
9521;BME280;4798;41.574;23.734;2023-05-18T09:31:53;94889.88;;;22.92;68.05
9521;BME280;4798;41.574;23.734;2023-05-18T09:34:22;94894.84;;;23.31;67.65
9521;BME280;4798;41.574;23.734;2023-05-18T09:36:52;94901.06;;;23.13;69.14
9521;BME280;4798;41.574;23.734;2023-05-18T09:39:22;94903.09;;;22.97;68.35
9521;BME280;4798;41.574;23.734;2023-05-18T09:41:54;94902.44;;;22.65;67.36
9521;BME280;4798;41.574;23.734;2023-05-18T09:44:30;94904.88;;;22.35;68.47
9521;BME280;4798;41.574;23.734;2023-05-18T09:46:58;94914.03;;;21.80;72.12
9521;BME280;4798;41.574;23.734;2023-05-18T09:49:28;94913.97;;;20.90;76.97
9521;BME280;4798;41.574;23.734;2023-05-18T09:51:58;94910.97;;;20.92;84.31
9521;BME280;4798;41.574;23.734;2023-05-18T09:54:27;94912.69;;;20.84;88.67
9521;BME280;4798;41.574;23.734;2023-05-18T09:56:56;94914.56;;;21.55;92.39
9521;BME280;4798;41.574;23.734;2023-05-18T09:59:37;94907.94;;;21.52;88.90
9521;BME280;4798;41.574;23.734;2023-05-18T10:02:05;94911.25;;;21.92;87.99
9521;BME280;4798;41.574;23.734;2023-05-18T10:04:36;94904.09;;;21.22;81.93
9521;BME280;4798;41.574;23.734;2023-05-18T10:07:12;94914.44;;;20.92;85.80
9521;BME280;4798;41.574;23.734;2023-05-18T10:09:43;94912.03;;;21.46;83.61
9521;BME280;4798;41.574;23.734;2023-05-18T10:12:13;94915.50;;;21.46;84.37
9521;BME280;4798;41.574;23.734;2023-05-18T10:14:43;94916.50;;;21.11;84.34
9521;BME280;4798;41.574;23.734;2023-05-18T10:17:12;94898.56;;;21.93;84.60
9521;BME280;4798;41.574;23.734;2023-05-18T10:19:43;94896.25;;;22.64;82.12
9521;BME280;4798;41.574;23.734;2023-05-18T10:22:15;94908.50;;;22.97;78.15
9521;BME280;4798;41.574;23.734;2023-05-18T10:24:49;94910.97;;;22.13;72.95
9521;BME280;4798;41.574;23.734;2023-05-18T10:27:22;94902.66;;;22.75;73.39
9521;BME280;4798;41.574;23.734;2023-05-18T10:29:51;94898.25;;;23.48;71.20
9521;BME280;4798;41.574;23.734;2023-05-18T10:32:22;94896.91;;;23.38;69.54
9521;BME280;4798;41.574;23.734;2023-05-18T10:34:51;94886.69;;;23.73;70.18
9521;BME280;4798;41.574;23.734;2023-05-18T10:37:23;94890.75;;;24.35;67.58
9521;BME280;4798;41.574;23.734;2023-05-18T10:39:53;94879.00;;;24.01;62.15
9521;BME280;4798;41.574;23.734;2023-05-18T10:42:24;94857.47;;;23.82;62.37
9521;BME280;4798;41.574;23.734;2023-05-18T10:44:53;94888.16;;;24.46;61.85
9521;BME280;4798;41.574;23.734;2023-05-18T10:47:23;94882.78;;;24.49;59.41
9521;BME280;4798;41.574;23.734;2023-05-18T10:49:53;94835.94;;;24.49;59.27
9521;BME280;4798;41.574;23.734;2023-05-18T10:52:23;94875.91;;;24.26;59.79
9521;BME280;4798;41.574;23.734;2023-05-18T10:54:57;94872.69;;;24.46;58.71
9521;BME280;4798;41.574;23.734;2023-05-18T10:57:30;94881.13;;;25.01;59.28
9521;BME280;4798;41.574;23.734;2023-05-18T11:00:02;94878.53;;;24.78;54.78
9521;BME280;4798;41.574;23.734;2023-05-18T11:02:33;94866.78;;;25.00;53.16
9521;BME280;4798;41.574;23.734;2023-05-18T11:05:04;94876.97;;;25.47;52.18
9521;BME280;4798;41.574;23.734;2023-05-18T11:07:34;94867.94;;;24.99;49.15
9521;BME280;4798;41.574;23.734;2023-05-18T11:10:08;94883.88;;;24.75;51.34
9521;BME280;4798;41.574;23.734;2023-05-18T11:12:37;94856.81;;;24.45;47.20
9521;BME280;4798;41.574;23.734;2023-05-18T11:15:08;94877.34;;;24.46;50.67
9521;BME280;4798;41.574;23.734;2023-05-18T11:17:36;94894.88;;;24.55;59.21
9521;BME280;4798;41.574;23.734;2023-05-18T11:20:12;94886.41;;;24.60;58.27
9521;BME280;4798;41.574;23.734;2023-05-18T11:22:47;94894.81;;;24.22;61.24
9521;BME280;4798;41.574;23.734;2023-05-18T11:25:37;94897.19;;;24.57;61.12
9521;BME280;4798;41.574;23.734;2023-05-18T11:28:08;94898.97;;;23.93;63.96
9521;BME280;4798;41.574;23.734;2023-05-18T11:30:47;94909.59;;;22.57;65.97
9521;BME280;4798;41.574;23.734;2023-05-18T11:33:22;94905.38;;;22.75;67.59
9521;BME280;4798;41.574;23.734;2023-05-18T11:35:54;94907.88;;;22.49;65.88
9521;BME280;4798;41.574;23.734;2023-05-18T11:41:25;94922.84;;;20.90;70.51
9521;BME280;4798;41.574;23.734;2023-05-18T11:44:19;94919.47;;;20.66;72.43
9521;BME280;4798;41.574;23.734;2023-05-18T11:46:53;94936.44;;;20.94;72.85
9521;BME280;4798;41.574;23.734;2023-05-18T11:49:23;94929.19;;;20.43;73.96
9521;BME280;4798;41.574;23.734;2023-05-18T11:52:15;94961.50;;;21.22;74.70
9521;BME280;4798;41.574;23.734;2023-05-18T11:54:48;94966.09;;;20.42;82.74
9521;BME280;4798;41.574;23.734;2023-05-18T11:57:19;94898.63;;;20.11;89.89
9521;BME280;4798;41.574;23.734;2023-05-18T11:59:54;94971.97;;;19.39;99.88
9521;BME280;4798;41.574;23.734;2023-05-18T12:02:24;94987.38;;;19.30;100.00
9521;BME280;4798;41.574;23.734;2023-05-18T12:04:54;94949.81;;;19.09;100.00
9521;BME280;4798;41.574;23.734;2023-05-18T12:07:25;94987.19;;;19.35;96.45
9521;BME280;4798;41.574;23.734;2023-05-18T12:09:58;95014.84;;;19.80;92.56
9521;BME280;4798;41.574;23.734;2023-05-18T12:12:27;95017.75;;;19.87;91.05
9521;BME280;4798;41.574;23.734;2023-05-18T12:14:57;95033.91;;;19.87;94.11
9521;BME280;4798;41.574;23.734;2023-05-18T12:17:37;95035.97;;;19.04;100.00
9521;BME280;4798;41.574;23.734;2023-05-18T12:22:54;95041.53;;;18.78;100.00
9521;BME280;4798;41.574;23.734;2023-05-18T12:25:25;95049.16;;;17.71;100.00
9521;BME280;4798;41.574;23.734;2023-05-18T12:27:54;95055.53;;;17.96;100.00
9521;BME280;4798;41.574;23.734;2023-05-18T12:30:25;95062.31;;;17.94;100.00
9521;BME280;4798;41.574;23.734;2023-05-18T12:33:10;95050.47;;;18.03;100.00
9521;BME280;4798;41.574;23.734;2023-05-18T12:35:42;95045.41;;;18.02;100.00
9521;BME280;4798;41.574;23.734;2023-05-18T12:38:11;95065.88;;;18.15;100.00
9521;BME280;4798;41.574;23.734;2023-05-18T12:40:40;95049.69;;;18.03;100.00
9521;BME280;4798;41.574;23.734;2023-05-18T12:43:14;95073.47;;;18.13;100.00
9521;BME280;4798;41.574;23.734;2023-05-18T12:45:43;95076.47;;;17.65;97.69
9521;BME280;4798;41.574;23.734;2023-05-18T12:48:12;95075.84;;;17.42;97.83
9521;BME280;4798;41.574;23.734;2023-05-18T12:50:45;95081.78;;;17.73;93.20
9521;BME280;4798;41.574;23.734;2023-05-18T12:53:13;95048.75;;;17.52;92.85
9521;BME280;4798;41.574;23.734;2023-05-18T12:55:43;95057.88;;;17.60;100.00
9521;BME280;4798;41.574;23.734;2023-05-18T12:58:13;95087.50;;;17.63;100.00
9521;BME280;4798;41.574;23.734;2023-05-18T13:00:44;95062.97;;;17.10;83.42
9521;BME280;4798;41.574;23.734;2023-05-18T13:03:14;95083.72;;;17.47;86.70
9521;BME280;4798;41.574;23.734;2023-05-18T13:05:44;95031.94;;;16.92;79.89
9521;BME280;4798;41.574;23.734;2023-05-18T13:08:13;95093.50;;;17.60;82.95
9521;BME280;4798;41.574;23.734;2023-05-18T13:10:45;94862.41;;;16.19;80.40
9521;BME280;4798;41.574;23.734;2023-05-18T13:13:27;95105.78;;;17.44;77.27
9521;BME280;4798;41.574;23.734;2023-05-18T13:15:55;95060.44;;;17.13;79.74
9521;BME280;4798;41.574;23.734;2023-05-18T13:18:26;95064.06;;;17.00;75.79
9521;BME280;4798;41.574;23.734;2023-05-18T13:20:55;95036.97;;;16.68;75.34
9521;BME280;4798;41.574;23.734;2023-05-18T13:23:29;95091.94;;;17.08;74.80
9521;BME280;4798;41.574;23.734;2023-05-18T13:25:59;95099.16;;;17.42;78.34